.
WxDataArchive / Data Records for 2012-10-28
2012-10-27 October 2012 2012-10-29

Data Records for Sunday, 28 October 2012

Time	Temp	Chill	HIndex	Humid	Dewpt	 Wind 	HiWind	WindDir	Rain 	Barom 
-----	----	-----	------	-----	-----	------	------	-------	-----	----- 
00:00	40.6	40.6	40.6	67	30.5	0	1	45	0.00	30.186 
00:05	40.6	40.6	40.6	68	30.9	0	1	68	0.00	30.186 
00:10	40.5	40.5	40.5	68	30.8	0	2	68	0.00	30.186 
00:15	40.5	40.5	40.5	69	31.1	0	1	68	0.00	30.177 
00:20	40.5	40.5	40.5	69	31.1	0	2	68	0.00	30.177 
00:25	40.5	40.5	40.5	69	31.1	0	0	---	0.00	30.177 
00:30	40.3	40.3	40.3	69	31.0	0	1	68	0.00	30.176 
00:35	40.3	40.3	40.3	70	31.3	0	1	68	0.00	30.176 
00:40	40.3	40.3	40.3	69	31.0	0	1	68	0.00	30.176 
00:45	40.5	40.5	40.5	69	31.1	0	1	68	0.00	30.171 
00:50	40.3	40.3	40.3	69	31.0	0	0	---	0.00	30.171 
00:55	40.2	40.2	40.2	69	30.9	0	1	68	0.00	30.171 
01:00	39.9	39.9	39.9	70	30.9	0	1	68	0.00	30.165 
01:05	39.8	39.8	39.8	70	30.8	0	0	---	0.00	30.165 
01:10	39.6	39.6	39.6	71	31.0	0	0	---	0.00	30.165 
01:15	39.5	39.5	39.5	71	30.9	0	0	---	0.00	30.173 
01:20	39.5	39.5	39.5	72	31.2	0	1	68	0.00	30.173 
01:25	39.5	39.5	39.5	72	31.2	0	1	68	0.00	30.173 
01:30	39.5	39.5	39.5	72	31.2	0	1	68	0.00	30.174 
01:35	39.5	39.5	39.5	71	30.9	0	2	68	0.00	30.174 
01:40	39.5	39.5	39.5	71	30.9	0	1	68	0.00	30.174 
01:45	39.5	39.5	39.5	71	30.9	0	2	68	0.00	30.182 
01:50	39.5	39.5	39.5	71	30.9	0	2	68	0.00	30.182 
01:55	39.3	39.3	39.3	72	31.0	0	3	68	0.00	30.182 
02:00	39.2	39.2	39.2	72	30.9	0	2	68	0.00	30.188 
02:05	39.1	39.1	39.1	72	30.8	0	1	68	0.00	30.188 
02:10	38.9	38.9	38.9	73	31.0	0	0	---	0.00	30.188 
02:15	38.8	38.8	38.8	73	30.9	0	1	68	0.00	30.187 
02:20	38.6	38.6	38.6	73	30.7	0	2	68	0.00	30.187 
02:25	38.5	38.5	38.5	73	30.6	0	1	68	0.00	30.187 
02:30	38.2	38.2	38.2	74	30.7	0	2	68	0.00	30.187 
02:35	38.0	38.0	38.0	74	30.5	0	1	68	0.00	30.187 
02:40	37.9	37.9	37.9	74	30.4	0	1	68	0.00	30.187 
02:45	37.9	37.9	37.9	75	30.7	0	1	68	0.00	30.179 
02:50	37.9	37.9	37.9	75	30.7	0	2	68	0.00	30.179 
02:55	37.8	37.8	37.8	75	30.6	0	1	68	0.00	30.179 
03:00	37.8	37.8	37.8	75	30.6	0	0	---	0.00	30.182 
03:05	37.8	37.8	37.8	75	30.6	0	1	68	0.00	30.182 
03:10	37.9	37.9	37.9	75	30.7	0	1	68	0.00	30.182 
03:15	38.2	38.2	38.2	74	30.7	0	1	68	0.00	30.174 
03:20	38.3	38.3	38.3	74	30.8	0	2	68	0.00	30.174 
03:25	38.5	38.5	38.5	74	30.9	0	2	68	0.00	30.174 
03:30	38.5	38.5	38.5	73	30.6	1	4	292	0.00	30.164 
03:35	38.6	38.6	38.6	73	30.7	1	2	315	0.00	30.164 
03:40	38.6	38.6	38.6	73	30.7	1	2	315	0.00	30.164 
03:45	38.8	38.8	38.8	72	30.6	1	3	315	0.00	30.165 
03:50	38.9	38.9	38.9	72	30.7	1	3	338	0.00	30.165 
03:55	38.9	38.9	38.9	71	30.3	0	2	338	0.00	30.165 
04:00	38.9	38.9	38.9	71	30.3	0	2	338	0.00	30.161 
04:05	38.8	38.8	38.8	71	30.2	0	4	338	0.00	30.161 
04:10	38.9	38.9	38.9	71	30.3	0	5	158	0.00	30.161 
04:15	38.9	38.9	38.9	70	30.0	0	2	338	0.00	30.158 
04:20	38.9	38.9	38.9	70	30.0	0	2	338	0.00	30.158 
04:25	38.9	38.9	38.9	70	30.0	0	3	338	0.00	30.158 
04:30	38.9	38.9	38.9	70	30.0	0	2	338	0.00	30.167 
04:35	38.9	38.9	38.9	70	30.0	0	4	338	0.00	30.167 
04:40	38.9	38.9	38.9	70	30.0	0	3	0	0.00	30.167 
04:45	38.9	38.9	38.9	70	30.0	0	3	270	0.00	30.171 
04:50	38.9	38.9	38.9	70	30.0	0	2	338	0.00	30.171 
04:55	39.1	39.1	39.1	70	30.2	0	3	338	0.00	30.171 
05:00	39.2	39.2	39.2	70	30.3	0	4	338	0.00	30.174 
05:05	39.3	39.3	39.3	69	30.0	1	3	315	0.00	30.174 
05:10	39.3	39.3	39.3	69	30.0	1	4	315	0.00	30.174 
05:15	39.2	39.2	39.2	69	29.9	1	3	315	0.00	30.174 
05:20	39.2	39.2	39.2	69	29.9	1	3	22	0.00	30.174 
05:25	39.2	39.2	39.2	69	29.9	1	3	0	0.00	30.174 
05:30	39.1	39.1	39.1	70	30.2	1	4	0	0.00	30.173 
05:35	38.9	38.9	38.9	70	30.0	1	2	0	0.00	30.173 
05:40	38.8	38.8	38.8	71	30.2	1	4	0	0.00	30.173 
05:45	38.6	38.6	38.6	71	30.0	1	5	0	0.00	30.174 
05:50	38.6	38.6	38.6	72	30.4	0	4	292	0.00	30.174 
05:55	38.5	38.5	38.5	72	30.3	1	5	315	0.00	30.174 
06:00	38.5	38.5	38.5	72	30.3	0	2	315	0.00	30.173 
06:05	38.3	38.3	38.3	72	30.1	0	3	315	0.00	30.173 
06:10	38.2	38.2	38.2	73	30.3	0	4	315	0.00	30.173 
06:15	38.2	38.2	38.2	73	30.3	1	5	112	0.00	30.179 
06:20	38.2	38.2	38.2	73	30.3	1	3	338	0.00	30.179 
06:25	38.2	38.2	38.2	72	30.0	1	3	315	0.00	30.179 
06:30	38.2	38.2	38.2	72	30.0	1	4	338	0.00	30.179 
06:35	38.2	38.2	38.2	72	30.0	1	4	338	0.00	30.179 
06:40	38.0	38.0	38.0	72	29.8	1	3	315	0.00	30.179 
06:45	37.9	37.9	37.9	72	29.7	1	3	315	0.00	30.177 
06:50	37.9	37.9	37.9	72	29.7	1	5	338	0.00	30.177 
06:55	37.9	37.9	37.9	72	29.7	1	5	315	0.00	30.177 
07:00	37.8	37.8	37.8	73	29.9	1	4	338	0.00	30.177 
07:05	37.8	37.8	37.8	73	29.9	1	4	338	0.00	30.177 
07:10	37.8	37.8	37.8	73	29.9	2	6	338	0.00	30.177 
07:15	37.6	37.6	37.6	73	29.7	1	4	338	0.00	30.180 
07:20	37.6	37.6	37.6	73	29.7	1	4	338	0.00	30.180 
07:25	37.6	37.6	37.6	74	30.1	1	4	0	0.00	30.180 
07:30	37.5	37.5	37.5	74	30.0	1	4	45	0.00	30.179 
07:35	37.5	37.5	37.5	74	30.0	1	6	338	0.00	30.179 
07:40	37.3	37.3	37.3	74	29.8	1	4	338	0.00	30.179 
07:45	37.3	37.3	37.3	74	29.8	1	4	0	0.00	30.180 
07:50	37.2	37.2	37.2	74	29.7	1	3	338	0.00	30.180 
07:55	37.2	37.2	37.2	74	29.7	1	5	338	0.00	30.180 
08:00	37.2	37.2	37.2	74	29.7	1	4	338	0.00	30.179 
08:05	37.2	37.2	37.2	74	29.7	1	5	338	0.00	30.179 
08:10	37.2	37.2	37.2	74	29.7	1	5	338	0.00	30.179 
08:15	37.2	37.2	37.2	74	29.7	1	4	315	0.00	30.183 
08:20	37.2	37.2	37.2	74	29.7	1	5	338	0.00	30.183 
08:25	37.2	37.2	37.2	74	29.7	2	4	338	0.00	30.183 
08:30	37.2	37.2	37.2	74	29.7	1	4	338	0.00	30.188 
08:35	37.2	37.2	37.2	74	29.7	1	5	338	0.00	30.188 
08:40	37.2	37.2	37.2	75	30.0	1	4	338	0.00	30.188 
08:45	37.2	37.2	37.2	75	30.0	1	4	338	0.00	30.192 
08:50	37.3	37.3	37.3	74	29.8	1	5	338	0.00	30.192 
08:55	37.5	37.5	37.5	74	30.0	0	3	0	0.00	30.192 
09:00	37.6	37.6	37.6	73	29.7	2	5	0	0.00	30.193 
09:05	37.6	37.6	37.6	73	29.7	1	3	22	0.00	30.193 
09:10	37.6	37.6	37.6	73	29.7	1	2	22	0.00	30.193 
09:15	37.6	37.6	37.6	73	29.7	1	4	0	0.00	30.198 
09:20	37.8	37.8	37.8	73	29.9	1	4	315	0.00	30.198 
09:25	37.9	37.9	37.9	72	29.7	1	5	338	0.00	30.198 
09:30	38.2	38.2	38.2	72	30.0	1	5	315	0.00	30.198 
09:35	38.6	38.6	38.6	72	30.4	1	3	0	0.00	30.198 
09:40	38.9	38.9	38.9	70	30.0	2	6	315	0.00	30.198 
09:45	39.5	39.5	39.5	70	30.5	0	2	292	0.00	30.197 
09:50	39.5	39.5	39.5	68	29.8	2	9	338	0.00	30.197 
09:55	39.8	39.8	39.8	68	30.1	1	5	338	0.00	30.197 
10:00	40.1	40.1	40.1	67	30.0	1	4	338	0.00	30.193 
10:05	40.3	40.3	40.3	66	29.9	1	5	315	0.00	30.193 
10:10	40.5	40.5	40.5	67	30.4	1	8	90	0.00	30.193 
10:15	40.9	40.9	40.9	66	30.4	1	4	338	0.00	30.192 
10:20	41.3	41.3	41.3	65	30.4	2	5	338	0.00	30.192 
10:25	41.6	41.6	41.6	63	30.0	2	6	338	0.00	30.192 
10:30	41.5	41.5	41.5	62	29.5	2	6	338	0.00	30.179 
10:35	41.6	41.6	41.6	64	30.3	1	4	315	0.00	30.179 
10:40	41.9	41.9	41.9	62	29.8	2	6	315	0.00	30.179 
10:45	42.1	42.1	42.1	62	30.0	2	6	338	0.00	30.174 
10:50	42.6	42.6	42.6	61	30.1	1	4	0	0.00	30.174 
10:55	42.9	42.9	42.9	60	30.0	2	5	338	0.00	30.174 
11:00	43.3	43.3	43.3	61	30.8	1	5	338	0.00	30.171 
11:05	43.6	43.6	43.6	60	30.6	2	6	0	0.00	30.171 
11:10	43.6	43.6	43.6	60	30.6	2	5	292	0.00	30.171 
11:15	43.3	43.3	43.3	60	30.4	1	4	338	0.00	30.170 
11:20	42.9	42.9	42.9	60	30.0	2	6	0	0.00	30.170 
11:25	43.1	43.1	43.1	61	30.6	2	7	0	0.00	30.170 
11:30	43.6	43.6	43.6	61	31.0	1	4	0	0.00	30.170 
11:35	44.5	44.5	44.5	60	31.5	2	5	315	0.00	30.170 
11:40	44.6	44.6	44.6	58	30.7	2	6	338	0.00	30.170 
11:45	44.5	44.5	44.5	58	30.7	2	5	0	0.00	30.163 
11:50	44.1	44.1	44.1	58	30.3	2	7	338	0.00	30.163 
11:55	43.9	43.9	43.9	58	30.1	2	6	0	0.00	30.163 
12:00	44.3	44.3	44.3	58	30.5	2	7	338	0.00	30.164 
12:05	44.9	44.9	44.9	57	30.6	2	6	68	0.00	30.164 
12:10	44.9	44.9	44.9	57	30.6	1	6	338	0.00	30.164 
12:15	45.1	45.1	45.1	58	31.2	1	6	338	0.00	30.160 
12:20	45.5	45.5	45.5	56	30.7	2	5	338	0.00	30.160 
12:25	45.7	45.7	45.7	55	30.5	2	6	0	0.00	30.160 
12:30	45.8	45.8	45.8	55	30.6	1	3	270	0.00	30.153 
12:35	46.0	46.0	46.0	57	31.6	1	4	22	0.00	30.153 
12:40	46.1	46.1	46.1	56	31.3	1	3	22	0.00	30.153 
12:45	46.5	46.5	46.5	56	31.7	1	4	338	0.00	30.147 
12:50	46.4	46.4	46.4	55	31.1	2	4	338	0.00	30.147 
12:55	46.4	46.4	46.4	58	32.4	1	5	338	0.00	30.147 
13:00	46.2	46.2	46.2	58	32.2	1	3	338	0.00	30.143 
13:05	46.1	46.1	46.1	59	32.6	1	3	315	0.00	30.143 
13:10	46.4	46.4	46.4	59	32.9	2	5	338	0.00	30.143 
13:15	46.7	46.7	46.7	59	33.1	1	4	0	0.00	30.134 
13:20	46.7	46.7	46.7	58	32.7	1	6	338	0.00	30.134 
13:25	46.5	46.5	46.5	58	32.5	1	5	338	0.00	30.134 
13:30	46.5	46.5	46.5	59	33.0	1	3	315	0.00	30.130 
13:35	46.5	46.5	46.5	59	33.0	0	3	0	0.00	30.130 
13:40	46.4	46.4	46.4	59	32.9	1	4	315	0.00	30.130 
13:45	46.2	46.2	46.2	60	33.1	1	4	338	0.00	30.131 
13:50	46.2	46.2	46.2	60	33.1	1	3	0	0.00	30.131 
13:55	46.4	46.4	46.4	58	32.4	1	4	338	0.00	30.131 
14:00	46.7	46.7	46.7	58	32.7	1	4	112	0.00	30.130 
14:05	46.7	46.7	46.7	57	32.3	1	9	112	0.00	30.130 
14:10	46.7	46.7	46.7	57	32.3	1	5	68	0.00	30.130 
14:15	46.8	46.8	46.8	57	32.4	1	6	135	0.00	30.130 
14:20	46.7	46.7	46.7	55	31.4	1	4	338	0.00	30.130 
14:25	46.4	46.4	46.4	55	31.1	2	6	338	0.00	30.130 
14:30	46.5	46.5	46.5	57	32.1	1	6	0	0.00	30.129 
14:35	46.4	46.4	46.4	54	30.7	1	6	338	0.00	30.129 
14:40	46.4	46.4	46.4	54	30.7	2	6	338	0.00	30.129 
14:45	46.4	46.4	46.4	54	30.7	2	10	315	0.00	30.127 
14:50	46.5	46.5	46.5	54	30.8	1	10	112	0.00	30.127 
14:55	46.8	46.8	46.8	54	31.0	2	5	338	0.00	30.127 
15:00	47.1	47.1	47.1	54	31.3	1	4	338	0.00	30.117 
15:05	47.4	47.4	47.4	54	31.6	2	6	315	0.00	30.117 
15:10	46.8	46.8	46.8	54	31.0	2	5	338	0.00	30.117 
15:15	46.7	46.7	46.7	54	30.9	2	6	0	0.00	30.118 
15:20	46.5	46.5	46.5	54	30.8	3	8	338	0.00	30.118 
15:25	46.7	46.7	46.7	55	31.4	1	11	338	0.00	30.118 
15:30	46.5	46.5	46.5	54	30.8	3	6	338	0.00	30.115 
15:35	46.5	46.5	46.5	55	31.2	2	5	338	0.00	30.115 
15:40	46.4	46.4	46.4	54	30.7	3	6	338	0.00	30.115 
15:45	46.2	46.2	46.2	55	30.9	2	9	338	0.00	30.125 
15:50	46.2	46.2	46.2	55	30.9	1	4	338	0.00	30.125 
15:55	46.4	46.4	46.4	57	32.0	0	2	338	0.00	30.125 
16:00	46.5	46.5	46.5	56	31.7	1	5	338	0.00	30.116 
16:05	46.5	46.5	46.5	55	31.2	3	6	338	0.00	30.116 
16:10	46.4	46.4	46.4	56	31.6	2	6	315	0.00	30.116 
16:15	46.4	46.4	46.4	55	31.1	1	6	315	0.00	30.126 
16:20	46.2	46.2	46.2	55	30.9	1	3	22	0.00	30.126 
16:25	46.2	46.2	46.2	56	31.4	2	7	338	0.00	30.126 
16:30	46.1	46.1	46.1	56	31.3	2	5	338	0.00	30.130 
16:35	46.1	46.1	46.1	56	31.3	2	7	292	0.00	30.130 
16:40	46.1	46.1	46.1	57	31.7	0	3	0	0.00	30.130 
16:45	46.1	46.1	46.1	56	31.3	1	5	0	0.00	30.129 
16:50	46.0	46.0	46.0	56	31.2	1	5	22	0.00	30.129 
16:55	46.0	46.0	46.0	55	30.7	3	7	338	0.00	30.129 
17:00	46.0	46.0	46.0	56	31.2	1	5	338	0.00	30.124 
17:05	45.8	45.8	45.8	56	31.0	2	6	0	0.00	30.124 
17:10	45.8	45.8	45.8	56	31.0	2	4	338	0.00	30.124 
17:15	45.8	45.8	45.8	56	31.0	2	6	0	0.00	30.120 
17:20	45.8	45.8	45.8	56	31.0	1	7	315	0.00	30.120 
17:25	45.8	45.8	45.8	56	31.0	1	4	338	0.00	30.120 
17:30	45.8	45.8	45.8	55	30.6	1	6	338	0.00	30.117 
17:35	45.8	45.8	45.8	55	30.6	0	3	315	0.00	30.117 
17:40	45.8	45.8	45.8	55	30.6	1	4	315	0.00	30.117 
17:45	45.8	45.8	45.8	55	30.6	1	5	0	0.00	30.121 
17:50	45.8	45.8	45.8	56	31.0	1	5	338	0.00	30.121 
17:55	45.8	45.8	45.8	56	31.0	1	4	338	0.00	30.121 
18:00	45.8	45.8	45.8	57	31.4	1	5	0	0.00	30.128 
18:05	45.7	45.7	45.7	56	30.9	2	7	338	0.00	30.128 
18:10	45.7	45.7	45.7	56	30.9	1	3	338	0.00	30.128 
18:15	45.7	45.7	45.7	57	31.3	1	4	292	0.00	30.130 
18:20	45.5	45.5	45.5	56	30.7	1	4	315	0.00	30.130 
18:25	45.5	45.5	45.5	56	30.7	1	3	315	0.00	30.130 
18:30	45.5	45.5	45.5	56	30.7	1	3	315	0.00	30.131 
18:35	45.5	45.5	45.5	56	30.7	1	4	0	0.00	30.131 
18:40	45.5	45.5	45.5	56	30.7	2	5	338	0.00	30.131 
18:45	45.5	45.5	45.5	56	30.7	1	5	338	0.00	30.130 
18:50	45.5	45.5	45.5	56	30.7	1	5	338	0.00	30.130 
18:55	45.5	45.5	45.5	56	30.7	1	4	0	0.00	30.130 
19:00	45.5	45.5	45.5	56	30.7	1	3	292	0.00	30.131 
19:05	45.5	45.5	45.5	56	30.7	2	6	338	0.00	30.131 
19:10	45.4	45.4	45.4	56	30.6	1	3	338	0.00	30.131 
19:15	45.4	45.4	45.4	55	30.2	1	4	338	0.00	30.137 
19:20	45.2	45.2	45.2	56	30.4	1	3	338	0.00	30.137 
19:25	45.1	45.1	45.1	56	30.4	1	3	270	0.00	30.137 
19:30	44.9	44.9	44.9	56	30.2	0	2	68	0.00	30.146 
19:35	44.9	44.9	44.9	56	30.2	1	3	68	0.00	30.146 
19:40	44.8	44.8	44.8	54	29.2	1	4	22	0.00	30.146 
19:45	44.8	44.8	44.8	52	28.3	1	6	22	0.00	30.149 
19:50	44.6	44.6	44.6	53	28.5	1	4	338	0.00	30.149 
19:55	44.6	44.6	44.6	52	28.1	1	4	0	0.00	30.149 
20:00	44.5	44.5	44.5	53	28.4	0	4	338	0.00	30.156 
20:05	44.3	44.3	44.3	52	27.8	1	4	338	0.00	30.156 
20:10	44.2	44.2	44.2	53	28.2	1	4	338	0.00	30.156 
20:15	44.1	44.1	44.1	53	28.1	1	4	338	0.00	30.155 
20:20	43.9	43.9	43.9	54	28.3	1	3	338	0.00	30.155 
20:25	43.6	43.6	43.6	54	28.1	1	3	338	0.00	30.155 
20:30	43.5	43.5	43.5	54	28.0	0	2	338	0.00	30.152 
20:35	43.3	43.3	43.3	55	28.2	0	2	338	0.00	30.152 
20:40	43.2	43.2	43.2	56	28.6	0	2	338	0.00	30.152 
20:45	43.1	43.1	43.1	56	28.5	1	4	338	0.00	30.153 
20:50	42.9	42.9	42.9	56	28.3	0	2	338	0.00	30.153 
20:55	42.9	42.9	42.9	56	28.3	1	4	338	0.00	30.153 
21:00	42.8	42.8	42.8	56	28.2	1	4	338	0.00	30.154 
21:05	42.8	42.8	42.8	56	28.2	1	4	338	0.00	30.154 
21:10	42.6	42.6	42.6	56	28.0	1	4	315	0.00	30.154 
21:15	42.6	42.6	42.6	56	28.0	1	4	0	0.00	30.152 
21:20	42.5	42.5	42.5	57	28.4	1	2	0	0.00	30.152 
21:25	42.3	42.3	42.3	58	28.6	0	2	45	0.00	30.152 
21:30	42.2	42.2	42.2	57	28.1	1	5	338	0.00	30.152 
21:35	42.2	42.2	42.2	57	28.1	1	3	315	0.00	30.152 
21:40	42.1	42.1	42.1	58	28.4	1	3	338	0.00	30.152 
21:45	41.9	41.9	41.9	58	28.2	1	6	338	0.00	30.152 
21:50	41.9	41.9	41.9	57	27.8	1	4	0	0.00	30.152 
21:55	41.8	41.8	41.8	58	28.1	0	3	338	0.00	30.152 
22:00	41.6	41.6	41.6	58	27.9	1	3	338	0.00	30.151 
22:05	41.6	41.6	41.6	58	27.9	1	4	0	0.00	30.151 
22:10	41.5	41.5	41.5	58	27.8	1	5	0	0.00	30.151 
22:15	41.3	41.3	41.3	58	27.7	0	2	270	0.00	30.151 
22:20	41.2	41.2	41.2	59	28.0	0	2	315	0.00	30.151 
22:25	41.2	41.2	41.2	59	28.0	1	5	315	0.00	30.151 
22:30	41.1	41.1	41.1	59	27.9	1	4	338	0.00	30.148 
22:35	41.1	41.1	41.1	59	27.9	1	4	292	0.00	30.148 
22:40	41.1	41.1	41.1	58	27.5	2	4	338	0.00	30.148 
22:45	41.1	41.1	41.1	58	27.5	1	3	338	0.00	30.146 
22:50	41.1	41.1	41.1	59	27.9	1	4	338	0.00	30.146 
22:55	40.9	40.9	40.9	59	27.7	0	2	338	0.00	30.146 
23:00	40.9	40.9	40.9	59	27.7	1	3	338	0.00	30.148 
23:05	40.8	40.8	40.8	59	27.6	0	2	338	0.00	30.148 
23:10	40.8	40.8	40.8	59	27.6	1	3	338	0.00	30.148 
23:15	40.8	40.8	40.8	59	27.6	1	3	338	0.00	30.146 
23:20	40.8	40.8	40.8	59	27.6	1	4	338	0.00	30.146 
23:25	40.6	40.6	40.6	59	27.4	1	4	315	0.00	30.146 
23:30	40.6	40.6	40.6	59	27.4	1	4	315	0.00	30.146 
23:35	40.6	40.6	40.6	59	27.4	1	4	338	0.00	30.146 
23:40	40.5	40.5	40.5	59	27.3	1	3	338	0.00	30.146 
23:45	40.5	40.5	40.5	59	27.3	1	4	338	0.00	30.136 
23:50	40.3	40.3	40.3	59	27.1	1	3	315	0.00	30.136 
23:55	40.3	40.3	40.3	59	27.1	1	2	315	0.00	30.136 

CoCoRaHS
IN-AL-39
A2 Web Hosting
Creative Commons License
GoDaddy
search engine by freefind advanced

loaded 2018-11-13 21:34:52 • last modified 2010-11-18 10:43:29
Privacy PolicyDisclaimer
• wx.awcolley.com is powered by PmWiki v.2002016 •
• all content (unless otherwise noted) © 2018 A W Colley